createdAt,value
2019-01-14T00:00:06.332Z,31.4
2019-01-14T00:02:05.053Z,31.5
2019-01-14T00:04:10.810Z,31.5
2019-01-14T00:06:10.617Z,31.5
2019-01-14T00:08:10.415Z,31.5
2019-01-14T00:10:05.620Z,31.5
2019-01-14T00:12:05.293Z,31.3
2019-01-14T00:14:05.513Z,31.3
2019-01-14T00:16:07.989Z,31.6
2019-01-14T00:18:05.462Z,31.6
2019-01-14T00:20:10.784Z,31.5
2019-01-14T00:22:05.450Z,31.5
2019-01-14T00:24:05.281Z,31.5
2019-01-14T00:26:05.967Z,31.5
2019-01-14T00:28:05.623Z,31.2
2019-01-14T00:30:05.314Z,31.3
2019-01-14T00:32:05.315Z,31.5
2019-01-14T00:34:05.755Z,31.2
2019-01-14T00:36:08.017Z,31.5
2019-01-14T00:38:10.494Z,31.4
2019-01-14T00:40:07.754Z,31.5
2019-01-14T00:42:05.414Z,31.5
2019-01-14T00:44:05.127Z,31.3
2019-01-14T00:46:08.400Z,31.2
2019-01-14T00:48:12.650Z,31.2
2019-01-14T00:50:05.377Z,31.4
2019-01-14T00:52:07.606Z,31.2
2019-01-14T00:54:05.887Z,31.2
2019-01-14T00:56:05.605Z,31.4
2019-01-14T00:58:05.375Z,31.4
2019-01-14T01:00:08.224Z,31.4
2019-01-14T01:02:06.039Z,31.4
2019-01-14T01:04:05.775Z,31.4
2019-01-14T01:06:06.014Z,31.4
2019-01-14T01:08:05.734Z,31.4
2019-01-14T01:10:05.494Z,31.4
2019-01-14T01:12:05.175Z,31.4
2019-01-14T01:14:05.475Z,31.3
2019-01-14T01:16:13.283Z,31.1
2019-01-14T01:18:05.169Z,31.1
2019-01-14T01:20:05.815Z,31.4
2019-01-14T01:22:05.486Z,31.4
2019-01-14T01:24:05.194Z,31.4
2019-01-14T01:26:05.111Z,31.2
2019-01-14T01:28:05.869Z,31.2
2019-01-14T01:30:05.627Z,31.4
2019-01-14T01:32:12.962Z,31.2
2019-01-14T01:34:08.164Z,31.2
2019-01-14T01:36:05.966Z,31.2
2019-01-14T01:38:05.637Z,31.2
2019-01-14T01:40:08.373Z,31.2
2019-01-14T01:42:05.043Z,31.2
2019-01-14T01:44:08.404Z,31.2
2019-01-14T01:46:13.344Z,31.2
2019-01-14T01:48:05.652Z,31.2
2019-01-14T01:50:05.314Z,31.2
2019-01-14T01:52:08.567Z,31.2
2019-01-14T01:54:05.358Z,31.2
2019-01-14T01:56:05.080Z,31.1
2019-01-14T01:58:10.819Z,31.4
2019-01-14T02:00:05.540Z,31.3
2019-01-14T02:02:05.214Z,31.1
2019-01-14T02:04:05.985Z,31.3
2019-01-14T02:06:05.760Z,31.3
2019-01-14T02:08:05.507Z,31.3
2019-01-14T02:10:05.687Z,31.3
2019-01-14T02:12:07.920Z,31.3
2019-01-14T02:14:05.604Z,31
2019-01-14T02:16:05.312Z,31.3
2019-01-14T02:18:05.842Z,31.3
2019-01-14T02:20:05.936Z,31.1
2019-01-14T02:22:05.654Z,31.1
2019-01-14T02:24:05.361Z,31.1
2019-01-14T02:26:10.546Z,31.1
2019-01-14T02:28:05.237Z,31.1
2019-01-14T02:30:05.898Z,31.1
2019-01-14T02:32:07.736Z,31.1
2019-01-14T02:34:05.533Z,31.1
2019-01-14T02:36:05.177Z,31.2
2019-01-14T02:38:05.862Z,31.1
2019-01-14T02:40:08.067Z,31.1
2019-01-14T02:42:05.322Z,31.1
2019-01-14T02:44:10.073Z,31.2
2019-01-14T02:46:05.750Z,31.2
2019-01-14T02:48:08.015Z,31.1
2019-01-14T02:50:05.765Z,31.1
2019-01-14T02:52:13.069Z,31.1
2019-01-14T02:54:05.751Z,31.1
2019-01-14T02:56:05.943Z,31.1
2019-01-14T02:58:05.625Z,31.2
2019-01-14T03:00:05.304Z,31.2
2019-01-14T03:02:06.027Z,31.1
2019-01-14T03:04:05.726Z,31.1
2019-01-14T03:06:05.386Z,31.1
2019-01-14T03:08:05.160Z,31.1
2019-01-14T03:10:05.321Z,31.1
2019-01-14T03:12:11.050Z,31.1
2019-01-14T03:14:08.266Z,31.1
2019-01-14T03:16:05.471Z,31
2019-01-14T03:18:10.423Z,31.1
2019-01-14T03:20:07.687Z,31.1
2019-01-14T03:22:05.960Z,31.1
2019-01-14T03:24:10.719Z,31.1
2019-01-14T03:26:08.042Z,31.1
2019-01-14T03:28:06.203Z,31.1
2019-01-14T03:30:05.912Z,31.1
2019-01-14T03:32:05.639Z,31.1
2019-01-14T03:34:05.861Z,31.1
2019-01-14T03:36:08.096Z,31.1
2019-01-14T03:38:05.346Z,30.9
2019-01-14T03:40:05.131Z,30.9
2019-01-14T03:42:05.865Z,31.1
2019-01-14T03:44:05.586Z,31.1
2019-01-14T03:46:05.821Z,31.1
2019-01-14T03:48:05.567Z,31.1
2019-01-14T03:50:05.232Z,31.1
2019-01-14T03:52:13.487Z,30.9
2019-01-14T03:54:07.698Z,30.9
2019-01-14T03:56:05.437Z,30.9
2019-01-14T03:58:05.170Z,30.9
2019-01-14T04:00:05.866Z,31.1
2019-01-14T04:02:05.624Z,31.1
2019-01-14T04:04:05.329Z,31
2019-01-14T04:06:05.088Z,31.1
2019-01-14T04:08:08.482Z,31.1
2019-01-14T04:10:05.252Z,31.1
2019-01-14T04:12:08.533Z,30.8
2019-01-14T04:14:05.210Z,31.1
2019-01-14T04:16:05.888Z,30.9
2019-01-14T04:18:08.246Z,31.1
2019-01-14T04:20:05.936Z,30.8
2019-01-14T04:22:05.638Z,30.9
2019-01-14T04:24:05.314Z,31.1
2019-01-14T04:26:07.566Z,30.8
2019-01-14T04:28:05.282Z,31.1
2019-01-14T04:30:08.653Z,30.8
2019-01-14T04:32:05.955Z,30.8
2019-01-14T04:34:05.136Z,31
2019-01-14T04:36:05.382Z,31
2019-01-14T04:38:05.844Z,31.1
2019-01-14T04:40:05.597Z,31
2019-01-14T04:42:05.948Z,30.8
2019-01-14T04:44:10.777Z,30.8
2019-01-14T04:46:05.473Z,30.8
2019-01-14T04:48:07.692Z,30.8
2019-01-14T04:50:05.447Z,31
2019-01-14T04:52:05.143Z,31.1
2019-01-14T04:54:05.942Z,31
2019-01-14T04:56:05.756Z,31
2019-01-14T04:58:05.550Z,31
2019-01-14T05:00:05.228Z,31
2019-01-14T05:02:05.949Z,31.2
2019-01-14T05:04:05.641Z,31.2
2019-01-14T05:06:08.357Z,31.1
2019-01-14T05:08:07.555Z,31.1
2019-01-14T05:10:05.246Z,31.1
2019-01-14T05:12:05.934Z,31.1
2019-01-14T05:14:05.629Z,31
2019-01-14T05:16:05.278Z,31.2
2019-01-14T05:18:05.806Z,31.2
2019-01-14T05:20:05.472Z,31.1
2019-01-14T05:22:05.350Z,30.9
2019-01-14T05:24:05.303Z,31
2019-01-14T05:26:08.528Z,31
2019-01-14T05:28:05.339Z,31
2019-01-14T05:30:05.666Z,30.9
2019-01-14T05:32:05.433Z,30.9
2019-01-14T05:34:09.214Z,30.9
2019-01-14T05:36:09.389Z,31.1
2019-01-14T05:38:05.139Z,30.8
2019-01-14T05:40:05.836Z,31
2019-01-14T05:42:08.076Z,30.9
2019-01-14T05:44:05.740Z,30.9
2019-01-14T05:46:05.395Z,30.9
2019-01-14T05:48:07.612Z,30.8
2019-01-14T05:50:05.278Z,30.8
2019-01-14T05:52:05.959Z,30.9
2019-01-14T05:54:05.152Z,30.9
2019-01-14T05:56:05.913Z,30.9
2019-01-14T05:58:05.580Z,30.9
2019-01-14T06:00:05.391Z,30.9
2019-01-14T06:02:05.068Z,31
2019-01-14T06:04:05.801Z,31
2019-01-14T06:06:05.480Z,30.9
2019-01-14T06:08:05.193Z,30.9
2019-01-14T06:10:05.485Z,31
2019-01-14T06:12:12.868Z,30.9
2019-01-14T06:14:05.640Z,30.9
2019-01-14T06:16:08.021Z,30.9
2019-01-14T06:18:05.880Z,30.9
2019-01-14T06:20:10.597Z,31
2019-01-14T06:22:05.264Z,31
2019-01-14T06:24:05.956Z,30.9
2019-01-14T06:26:05.141Z,30.9
2019-01-14T06:28:05.838Z,30.9
2019-01-14T06:30:07.608Z,30.9
2019-01-14T06:32:05.820Z,30.9
2019-01-14T06:34:05.552Z,30.9
2019-01-14T06:36:05.259Z,31
2019-01-14T06:38:05.949Z,31
2019-01-14T06:40:15.799Z,30.9
2019-01-14T06:42:07.961Z,31
2019-01-14T06:44:05.637Z,31
2019-01-14T06:46:05.374Z,31
2019-01-14T06:48:05.090Z,30.8
2019-01-14T06:50:10.837Z,30.8
2019-01-14T06:52:05.665Z,30.8
2019-01-14T06:54:05.336Z,30.8
2019-01-14T06:56:06.010Z,30.9
2019-01-14T06:58:05.207Z,30.9
2019-01-14T07:00:05.953Z,31
2019-01-14T07:02:05.707Z,31
2019-01-14T07:04:05.428Z,30.7
2019-01-14T07:06:05.116Z,31
2019-01-14T07:08:05.825Z,31
2019-01-14T07:10:10.612Z,31
2019-01-14T07:12:05.792Z,30.9
2019-01-14T07:14:05.765Z,30.7
2019-01-14T07:16:06.095Z,30.9
2019-01-14T07:18:05.948Z,30.9
2019-01-14T07:20:05.874Z,31
2019-01-14T07:22:05.812Z,30.9
2019-01-14T07:24:08.036Z,30.7
2019-01-14T07:26:05.764Z,30.7
2019-01-14T07:28:05.414Z,30.7
2019-01-14T07:30:05.110Z,30.8
2019-01-14T07:32:05.853Z,30.8
2019-01-14T07:34:08.134Z,30.8
2019-01-14T07:36:08.413Z,30.8
2019-01-14T07:38:08.354Z,30.6
2019-01-14T07:40:05.862Z,30.8
2019-01-14T07:42:05.533Z,30.8
2019-01-14T07:44:05.195Z,30.8
2019-01-14T07:46:05.898Z,31
2019-01-14T07:48:05.123Z,30.8
2019-01-14T07:50:08.494Z,30.7
2019-01-14T07:52:07.657Z,30.7
2019-01-14T07:54:05.323Z,30.7
2019-01-14T07:56:05.123Z,30.7
2019-01-14T07:58:05.890Z,30.7
2019-01-14T08:00:08.064Z,30.7
2019-01-14T08:02:07.760Z,30.9
2019-01-14T08:04:11.054Z,30.8
2019-01-14T08:06:08.254Z,30.9
2019-01-14T08:08:05.952Z,30.9
2019-01-14T08:10:08.369Z,30.9
2019-01-14T08:12:05.537Z,30.8
2019-01-14T08:14:05.325Z,30.8
2019-01-14T08:16:07.583Z,30.8
2019-01-14T08:18:10.535Z,30.8
2019-01-14T08:20:05.716Z,30.8
2019-01-14T08:22:05.355Z,30.9
2019-01-14T08:24:05.037Z,30.8
2019-01-14T08:26:05.294Z,30.8
2019-01-14T08:28:05.973Z,30.8
2019-01-14T08:30:05.659Z,30.8
2019-01-14T08:32:05.869Z,30.8
2019-01-14T08:34:05.140Z,30.8
2019-01-14T08:36:10.900Z,30.6
2019-01-14T08:38:05.684Z,30.7
2019-01-14T08:40:07.959Z,30.9
2019-01-14T08:42:05.696Z,30.7
2019-01-14T08:44:10.404Z,30.6
2019-01-14T08:46:07.619Z,30.9
2019-01-14T08:48:05.914Z,30.9
2019-01-14T08:50:05.608Z,30.9
2019-01-14T08:52:17.963Z,30.9
2019-01-14T08:54:08.193Z,30.9
2019-01-14T08:56:05.865Z,30.9
2019-01-14T08:58:05.624Z,30.7
2019-01-14T09:00:05.301Z,30.9
2019-01-14T09:02:07.523Z,30.9
2019-01-14T09:04:10.437Z,30.8
2019-01-14T09:06:05.644Z,30.8
2019-01-14T09:08:05.927Z,30.9
2019-01-14T09:10:05.606Z,30.8
2019-01-14T09:12:05.344Z,30.8
2019-01-14T09:14:05.022Z,30.8
2019-01-14T09:16:05.763Z,30.8
2019-01-14T09:18:05.674Z,30.8
2019-01-14T09:20:05.370Z,30.9
2019-01-14T09:22:05.677Z,30.7
2019-01-14T09:24:05.449Z,31
2019-01-14T09:26:11.156Z,30.7
2019-01-14T09:28:06.070Z,30.7
2019-01-14T09:30:08.324Z,30.7
2019-01-14T09:32:05.502Z,30.9
2019-01-14T09:34:07.735Z,30.9
2019-01-14T09:36:05.412Z,30.6
2019-01-14T09:38:05.637Z,30.9
2019-01-14T09:40:05.754Z,30.9
2019-01-14T09:42:11.136Z,30.7
2019-01-14T09:44:10.896Z,30.6
2019-01-14T09:46:05.801Z,30.9
2019-01-14T09:48:05.227Z,30.8
2019-01-14T09:50:08.454Z,30.6
2019-01-14T09:52:05.245Z,30.6
2019-01-14T09:54:05.906Z,30.8
2019-01-14T09:56:08.114Z,30.7
2019-01-14T09:58:05.785Z,30.7
2019-01-14T10:00:05.974Z,30.7
2019-01-14T10:02:05.646Z,30.7
2019-01-14T10:04:05.351Z,30.7
2019-01-14T10:06:05.091Z,30.7
2019-01-14T10:08:05.794Z,30.7
2019-01-14T10:10:05.622Z,30.7
2019-01-14T10:12:05.386Z,30.7
2019-01-14T10:14:08.092Z,30.7
2019-01-14T10:16:05.764Z,30.7
2019-01-14T10:18:05.941Z,30.7
2019-01-14T10:20:08.430Z,30.7
2019-01-14T10:22:06.369Z,30.7
2019-01-14T10:24:05.025Z,30.7
2019-01-14T10:26:10.821Z,30.7
2019-01-14T10:28:05.939Z,30.7
2019-01-14T10:30:05.656Z,30.7
2019-01-14T10:32:05.346Z,30.7
2019-01-14T10:34:05.018Z,30.7
2019-01-14T10:36:05.753Z,30.7
2019-01-14T10:38:05.496Z,30.7
2019-01-14T10:40:05.186Z,30.7
2019-01-14T10:42:05.877Z,30.7
2019-01-14T10:44:05.660Z,30.7
2019-01-14T10:46:05.882Z,30.7
2019-01-14T10:48:05.625Z,30.7
2019-01-14T10:50:05.246Z,30.7
2019-01-14T10:52:06.025Z,30.7
2019-01-14T10:54:05.683Z,30.7
2019-01-14T10:56:10.362Z,30.9
2019-01-14T10:58:10.071Z,31.2
2019-01-14T11:00:05.371Z,31.1
2019-01-14T11:02:05.065Z,31.2
2019-01-14T11:04:08.264Z,31.4
2019-01-14T11:06:05.986Z,31.2
2019-01-14T11:08:05.189Z,31.4
2019-01-14T11:10:05.864Z,31.3
2019-01-14T11:12:05.532Z,31.3
2019-01-14T11:14:05.751Z,31.3
2019-01-14T11:16:08.000Z,31.3
2019-01-14T11:18:05.426Z,31.3
2019-01-14T11:20:07.834Z,31.4
2019-01-14T11:22:05.034Z,31.4
2019-01-14T11:24:05.719Z,31.4
2019-01-14T11:26:05.961Z,31.5
2019-01-14T11:28:07.781Z,31.5
2019-01-14T11:30:05.482Z,31.5
2019-01-14T11:32:05.175Z,31.3
2019-01-14T11:34:05.857Z,31.5
2019-01-14T11:36:05.048Z,31.3
2019-01-14T11:38:05.267Z,31.3
2019-01-14T11:40:05.958Z,31.3
2019-01-14T11:42:06.159Z,31.4
2019-01-14T11:44:10.996Z,31.4
2019-01-14T11:46:05.976Z,31.4
2019-01-14T11:48:05.667Z,31.7
2019-01-14T11:50:05.326Z,31.8
2019-01-14T11:52:05.105Z,31.8
2019-01-14T11:54:05.808Z,31.8
2019-01-14T11:56:05.478Z,31.6
2019-01-14T11:58:12.713Z,31.6
2019-01-14T12:00:05.964Z,31.6
2019-01-14T12:02:10.725Z,31.6
2019-01-14T12:04:05.387Z,31.6
2019-01-14T12:06:05.168Z,31.7
2019-01-14T12:08:05.894Z,31.5
2019-01-14T12:10:05.594Z,31.6
2019-01-14T12:12:08.361Z,31.3
2019-01-14T12:14:04.997Z,31.3
2019-01-14T12:16:05.187Z,31.4
2019-01-14T12:18:05.017Z,31.4
2019-01-14T12:20:05.232Z,31.2
2019-01-14T12:22:05.921Z,31.2
2019-01-14T12:24:05.684Z,31.1
2019-01-14T12:26:05.959Z,31.1
2019-01-14T12:28:05.661Z,31.1
2019-01-14T12:30:05.899Z,30.8
2019-01-14T12:32:05.592Z,30.9
2019-01-14T12:34:05.265Z,31
2019-01-14T12:36:05.997Z,30.8
2019-01-14T12:38:05.657Z,30.8
2019-01-14T12:40:05.386Z,30.7
2019-01-14T12:42:12.677Z,30.8
2019-01-14T12:44:05.431Z,30.8
2019-01-14T12:46:10.787Z,30.7
2019-01-14T12:48:05.510Z,30.7
2019-01-14T12:50:05.735Z,30.7
2019-01-14T12:52:11.040Z,30.6
2019-01-14T12:54:05.721Z,30.6
2019-01-14T12:56:05.430Z,30.6
2019-01-14T12:58:05.121Z,30.6
2019-01-14T13:00:08.328Z,30.6
2019-01-14T13:02:10.646Z,30.6
2019-01-14T13:04:05.310Z,30.6
2019-01-14T13:06:05.992Z,30.6
2019-01-14T13:08:08.201Z,30.5
2019-01-14T13:10:05.833Z,30.5
2019-01-14T13:12:05.531Z,30.6
2019-01-14T13:14:05.280Z,30.5
2019-01-14T13:16:06.063Z,30.5
2019-01-14T13:18:06.148Z,30.4
2019-01-14T13:20:05.848Z,30.4
2019-01-14T13:22:05.134Z,30.5
2019-01-14T13:24:05.830Z,30.3
2019-01-14T13:26:05.497Z,30.5
2019-01-14T13:28:05.160Z,30.3
2019-01-14T13:30:05.818Z,30.4
2019-01-14T13:32:10.577Z,30.4
2019-01-14T13:34:05.240Z,30.4
2019-01-14T13:36:05.995Z,30.2
2019-01-14T13:38:05.642Z,30.4
2019-01-14T13:40:05.806Z,30.3
2019-01-14T13:42:05.001Z,30.5
2019-01-14T13:44:05.710Z,30.4
2019-01-14T13:46:08.576Z,30.4
2019-01-14T13:48:07.962Z,30.5
2019-01-14T13:50:08.149Z,30.4
2019-01-14T13:52:05.886Z,30.2
2019-01-14T13:54:05.567Z,30.4
2019-01-14T13:56:05.255Z,30.4
2019-01-14T13:58:05.888Z,30.2
2019-01-14T14:00:05.136Z,30.5
2019-01-14T14:02:05.788Z,30.2
2019-01-14T14:04:05.985Z,30.3
2019-01-14T14:06:05.298Z,30.3
2019-01-14T14:08:08.037Z,30.2
2019-01-14T14:10:05.766Z,30.2
2019-01-14T14:12:05.418Z,30.2
2019-01-14T14:14:05.126Z,30.2
2019-01-14T14:16:05.826Z,30.2
2019-01-14T14:18:05.248Z,30.2
2019-01-14T14:20:08.637Z,30.2
2019-01-14T14:22:12.421Z,30.1
2019-01-14T14:24:07.642Z,30.2
2019-01-14T14:26:05.436Z,30.1
2019-01-14T14:28:05.220Z,30.2
2019-01-14T14:30:07.320Z,30.2
2019-01-14T14:32:05.578Z,30.3
2019-01-14T14:34:05.781Z,30.2
2019-01-14T14:36:07.979Z,30.1
2019-01-14T14:38:05.658Z,30.1
2019-01-14T14:40:05.839Z,30.1
2019-01-14T14:42:08.040Z,30.1
2019-01-14T14:44:05.730Z,30.1
2019-01-14T14:46:08.462Z,30
2019-01-14T14:48:05.169Z,30
2019-01-14T14:50:08.230Z,30
2019-01-14T14:52:08.463Z,30
2019-01-14T14:54:05.136Z,30
2019-01-14T14:56:05.875Z,30
2019-01-14T14:58:05.526Z,30.1
2019-01-14T15:00:07.727Z,30
2019-01-14T15:02:05.545Z,29.9
2019-01-14T15:04:05.342Z,30
2019-01-14T15:06:05.026Z,30
2019-01-14T15:08:05.668Z,29.9
2019-01-14T15:10:05.922Z,30
2019-01-14T15:12:05.578Z,29.9
2019-01-14T15:14:05.231Z,29.9
2019-01-14T15:16:05.900Z,29.9
2019-01-14T15:18:05.841Z,29.9
2019-01-14T15:20:05.133Z,30
2019-01-14T15:22:08.413Z,30
2019-01-14T15:24:07.596Z,30
2019-01-14T15:26:05.233Z,30
2019-01-14T15:28:08.522Z,29.9
2019-01-14T15:30:05.271Z,29.9
2019-01-14T15:32:05.532Z,29.9
2019-01-14T15:34:05.297Z,29.9
2019-01-14T15:36:05.972Z,29.9
2019-01-14T15:38:05.758Z,29.9
2019-01-14T15:40:06.069Z,30
2019-01-14T15:42:05.746Z,29.9
2019-01-14T15:44:05.458Z,29.9
2019-01-14T15:46:12.734Z,29.9
2019-01-14T15:48:06.015Z,29.9
2019-01-14T15:50:05.256Z,29.8
2019-01-14T15:52:08.441Z,29.9
2019-01-14T15:54:12.928Z,29.7
2019-01-14T15:56:05.130Z,29.7
2019-01-14T15:58:05.809Z,29.9
2019-01-14T16:00:05.538Z,29.8
2019-01-14T16:02:05.225Z,29.8
2019-01-14T16:04:05.937Z,29.8
2019-01-14T16:06:05.650Z,29.9
2019-01-14T16:08:10.425Z,29.8
2019-01-14T16:10:11.128Z,29.8
2019-01-14T16:12:08.385Z,29.7
2019-01-14T16:14:10.126Z,29.7
2019-01-14T16:16:05.828Z,29.8
2019-01-14T16:18:05.700Z,29.7
2019-01-14T16:20:07.897Z,29.7
2019-01-14T16:22:07.712Z,29.7
2019-01-14T16:24:05.418Z,29.7
2019-01-14T16:26:08.177Z,29.8
2019-01-14T16:28:05.937Z,29.6
2019-01-14T16:30:05.671Z,29.8
2019-01-14T16:32:05.333Z,29.8
2019-01-14T16:34:05.606Z,29.7
2019-01-14T16:36:05.255Z,29.6
2019-01-14T16:38:07.994Z,29.6
2019-01-14T16:40:05.695Z,29.8
2019-01-14T16:42:10.406Z,29.6
2019-01-14T16:44:05.079Z,29.6
2019-01-14T16:46:05.746Z,29.6
2019-01-14T16:48:07.997Z,29.6
2019-01-14T16:50:05.666Z,29.6
2019-01-14T16:52:06.951Z,29.6
2019-01-14T16:54:05.311Z,29.7
2019-01-14T16:56:05.102Z,29.7
2019-01-14T16:58:05.805Z,29.7
2019-01-14T17:00:05.498Z,29.6
2019-01-14T17:02:07.717Z,29.6
2019-01-14T17:04:05.365Z,29.6
2019-01-14T17:06:05.035Z,29.6
2019-01-14T17:08:06.217Z,29.6
2019-01-14T17:10:05.928Z,29.6
2019-01-14T17:12:05.635Z,29.6
2019-01-14T17:14:05.376Z,29.6
2019-01-14T17:16:05.799Z,29.6
2019-01-14T17:18:05.682Z,29.6
2019-01-14T17:20:05.484Z,29.6
2019-01-14T17:22:05.749Z,29.6
2019-01-14T17:24:05.732Z,29.6
2019-01-14T17:26:08.105Z,29.6
2019-01-14T17:28:05.877Z,29.6
2019-01-14T17:30:05.652Z,29.6
2019-01-14T17:32:10.450Z,29.5
2019-01-14T17:34:05.453Z,29.6
2019-01-14T17:36:05.102Z,29.7
2019-01-14T17:38:07.885Z,29.5
2019-01-14T17:40:08.101Z,29.7
2019-01-14T17:42:05.807Z,29.5
2019-01-14T17:44:05.527Z,29.5
2019-01-14T17:46:06.187Z,29.5
2019-01-14T17:48:05.887Z,29.5
2019-01-14T17:50:05.562Z,29.5
2019-01-14T17:52:06.859Z,29.6
2019-01-14T17:54:05.540Z,29.6
2019-01-14T17:56:05.178Z,29.6
2019-01-14T17:58:10.941Z,29.6
2019-01-14T18:00:08.129Z,29.6
2019-01-14T18:02:05.463Z,29.6
2019-01-14T18:04:05.167Z,29.6
2019-01-14T18:06:09.340Z,29.5
2019-01-14T18:08:08.026Z,29.6
2019-01-14T18:10:05.023Z,29.5
2019-01-14T18:12:05.765Z,29.5
2019-01-14T18:14:05.521Z,29.5
2019-01-14T18:16:05.235Z,29.5
2019-01-14T18:18:05.171Z,29.6
2019-01-14T18:20:05.894Z,29.6
2019-01-14T18:22:05.851Z,29.5
2019-01-14T18:24:05.531Z,29.5
2019-01-14T18:26:05.254Z,29.5
2019-01-14T18:28:05.196Z,29.5
2019-01-14T18:30:07.973Z,29.4
2019-01-14T18:32:08.198Z,29.6
2019-01-14T18:34:05.862Z,29.5
2019-01-14T18:36:10.620Z,29.5
2019-01-14T18:38:07.918Z,29.6
2019-01-14T18:40:08.092Z,29.4
2019-01-14T18:42:05.743Z,29.4
2019-01-14T18:44:05.848Z,29.4
2019-01-14T18:46:05.519Z,29.4
2019-01-14T18:48:05.310Z,29.4
2019-01-14T18:50:08.489Z,29
2019-01-14T18:52:05.268Z,29.4
2019-01-14T18:54:06.046Z,29.4
2019-01-14T18:56:05.768Z,29.4
2019-01-14T18:58:08.026Z,29.4
2019-01-14T19:00:05.715Z,29.4
2019-01-14T19:02:05.386Z,29.3
2019-01-14T19:04:05.192Z,29.4
2019-01-14T19:06:05.875Z,29.4
2019-01-14T19:08:05.569Z,29.4
2019-01-14T19:10:05.330Z,29.3
2019-01-14T19:12:04.982Z,29.3
2019-01-14T19:14:05.642Z,29.3
2019-01-14T19:16:07.932Z,29.3
2019-01-14T19:18:05.811Z,29.3
2019-01-14T19:20:05.503Z,29.4
2019-01-14T19:22:07.688Z,29.3
2019-01-14T19:24:05.431Z,29.3
2019-01-14T19:26:07.829Z,29.4
2019-01-14T19:28:05.678Z,29.4
2019-01-14T19:30:08.166Z,29.4
2019-01-14T19:32:06.168Z,29.4
2019-01-14T19:34:10.873Z,29.4
2019-01-14T19:36:05.544Z,29.4
2019-01-14T19:38:05.312Z,29.4
2019-01-14T19:40:07.543Z,29.4
2019-01-14T19:42:10.509Z,29.3
2019-01-14T19:44:05.146Z,29.3
2019-01-14T19:46:05.939Z,29.5
2019-01-14T19:48:08.347Z,29.4
2019-01-14T19:50:05.027Z,29.4
2019-01-14T19:52:08.307Z,29.4
2019-01-14T19:54:05.982Z,29.4
2019-01-14T19:56:05.709Z,29.3
2019-01-14T19:58:07.912Z,29.5
2019-01-14T20:00:08.085Z,29.5
2019-01-14T20:02:05.777Z,29.5
2019-01-14T20:04:05.704Z,29.5
2019-01-14T20:06:05.656Z,29.5
2019-01-14T20:08:05.909Z,29.5
2019-01-14T20:10:05.097Z,29.5
2019-01-14T20:12:05.777Z,29.6
2019-01-14T20:14:07.947Z,29.5
2019-01-14T20:16:05.607Z,29.5
2019-01-14T20:18:04.989Z,29.6
2019-01-14T20:20:05.178Z,29.7
2019-01-14T20:22:05.887Z,29.7
2019-01-14T20:24:05.582Z,29.7
2019-01-14T20:26:10.800Z,29.9
2019-01-14T20:28:08.066Z,29.9
2019-01-14T20:30:05.740Z,29.9
2019-01-14T20:32:06.022Z,29.9
2019-01-14T20:34:05.690Z,30
2019-01-14T20:36:05.353Z,30
2019-01-14T20:38:05.029Z,30.1
2019-01-14T20:40:05.794Z,30.1
2019-01-14T20:42:05.679Z,30.1
2019-01-14T20:44:07.914Z,30
2019-01-14T20:46:05.611Z,30
2019-01-14T20:48:12.894Z,30.1
2019-01-14T20:50:05.639Z,30.2
2019-01-14T20:52:05.337Z,30.1
2019-01-14T20:54:05.033Z,30.1
2019-01-14T20:56:07.821Z,30.3
2019-01-14T20:58:10.576Z,30.3
2019-01-14T21:00:05.260Z,30.3
2019-01-14T21:02:08.054Z,30.3
2019-01-14T21:04:10.762Z,30.3
2019-01-14T21:06:05.922Z,30.2
2019-01-14T21:08:05.696Z,30.2
2019-01-14T21:10:07.942Z,30.2
2019-01-14T21:12:06.149Z,30.1
2019-01-14T21:14:05.389Z,30.3
2019-01-14T21:16:05.042Z,30.3
2019-01-14T21:18:05.995Z,30.4
2019-01-14T21:20:09.319Z,30.3
2019-01-14T21:22:15.723Z,30.2
2019-01-14T21:24:05.602Z,30.2
2019-01-14T21:26:07.849Z,30.2
2019-01-14T21:28:07.884Z,30.2
2019-01-14T21:30:06.384Z,30.2
2019-01-14T21:32:05.178Z,30.4
2019-01-14T21:34:10.187Z,30.1
2019-01-14T21:36:06.100Z,30.4
2019-01-14T21:38:13.269Z,30.3
2019-01-14T21:40:05.341Z,30.3
2019-01-14T21:42:11.783Z,30.3
2019-01-14T21:44:05.740Z,30.3
2019-01-14T21:46:10.049Z,30.3
2019-01-14T21:48:17.781Z,30.3
2019-01-14T21:50:08.037Z,30.3
2019-01-14T21:52:05.937Z,30.3
2019-01-14T21:54:08.376Z,30.5
2019-01-14T21:56:13.539Z,30.5
2019-01-14T21:58:05.781Z,30.5
2019-01-14T22:00:05.200Z,30.5
2019-01-14T22:02:05.144Z,30.5
2019-01-14T22:04:07.842Z,30.4
2019-01-14T22:06:05.184Z,30.6
2019-01-14T22:08:07.610Z,30.6
2019-01-14T22:10:07.834Z,30.5
2019-01-14T22:12:08.738Z,30.5
2019-01-14T22:14:06.262Z,30.5
2019-01-14T22:16:05.725Z,30.6
2019-01-14T22:18:05.368Z,30.5
2019-01-14T22:20:05.364Z,30.5
2019-01-14T22:22:05.094Z,30.4
2019-01-14T22:24:05.806Z,30.4
2019-01-14T22:26:05.931Z,30.4
2019-01-14T22:28:06.418Z,30.4
2019-01-14T22:30:07.627Z,30.4
2019-01-14T22:32:07.688Z,30.4
2019-01-14T22:34:11.803Z,30.3
2019-01-14T22:36:06.366Z,30.4
2019-01-14T22:38:05.088Z,30.3
2019-01-14T22:40:05.264Z,30.4
2019-01-14T22:42:13.169Z,30.3
2019-01-14T22:44:05.839Z,30.3
2019-01-14T22:46:10.155Z,30.3
2019-01-14T22:48:05.560Z,30.3
2019-01-14T22:50:09.314Z,30.3
2019-01-14T22:52:06.120Z,30.3
2019-01-14T22:54:17.062Z,30.3
2019-01-14T22:56:08.518Z,30.3
2019-01-14T22:58:06.708Z,30.3
2019-01-14T23:00:05.895Z,30.3
2019-01-14T23:02:05.046Z,30.3
2019-01-14T23:04:05.680Z,30.3
2019-01-14T23:06:06.629Z,30.3
2019-01-14T23:08:07.721Z,30.3
2019-01-14T23:10:05.912Z,30.3
2019-01-14T23:12:07.933Z,30.3
2019-01-14T23:14:05.122Z,30.2
2019-01-14T23:16:08.395Z,30.3
2019-01-14T23:18:05.742Z,30.3
2019-01-14T23:20:06.170Z,30.3
2019-01-14T23:22:08.326Z,30.2
2019-01-14T23:24:06.985Z,30.2
2019-01-14T23:26:05.285Z,30.2
2019-01-14T23:28:10.305Z,30.1
2019-01-14T23:30:06.179Z,30.2
2019-01-14T23:32:05.679Z,30.2
2019-01-14T23:34:05.244Z,30.3
2019-01-14T23:36:05.945Z,30.2
2019-01-14T23:38:05.748Z,30.2
2019-01-14T23:40:05.890Z,30.2
2019-01-14T23:42:05.599Z,30.2
2019-01-14T23:44:05.769Z,30.1
2019-01-14T23:46:05.621Z,30.2
2019-01-14T23:48:06.515Z,30.2
2019-01-14T23:50:07.183Z,30.2
2019-01-14T23:52:05.141Z,30.2
2019-01-14T23:54:05.547Z,30.2
2019-01-14T23:56:23.322Z,30.2
2019-01-14T23:58:05.528Z,30.2
